createdAt,value
2023-05-06T00:02:20.884Z,57.90
2023-05-06T00:04:47.826Z,60.70
2023-05-06T00:07:14.831Z,49.00
2023-05-06T00:09:41.654Z,45.70
2023-05-06T00:12:08.449Z,39.50
2023-05-06T00:14:35.210Z,81.50
2023-05-06T00:17:01.969Z,99.90
2023-05-06T00:19:28.721Z,99.90
2023-05-06T00:21:55.996Z,99.90
2023-05-06T00:24:22.890Z,99.90
2023-05-06T00:26:49.717Z,99.90
2023-05-06T00:29:17.137Z,99.90
2023-05-06T00:31:45.305Z,99.90
2023-05-06T00:34:12.202Z,99.90
2023-05-06T00:36:39.029Z,99.90
2023-05-06T00:39:06.172Z,99.90
2023-05-06T00:41:33.865Z,99.90
2023-05-06T00:44:00.611Z,99.90
2023-05-06T00:46:27.604Z,99.90
2023-05-06T00:48:55.208Z,99.90
2023-05-06T00:51:22.416Z,99.90
2023-05-06T00:53:49.546Z,99.90
2023-05-06T00:56:20.478Z,99.90
2023-05-06T00:58:48.109Z,99.90
2023-05-06T01:01:15.060Z,99.90
2023-05-06T01:03:42.081Z,99.90
2023-05-06T01:06:11.950Z,99.90
2023-05-06T01:08:54.902Z,99.90
2023-05-06T01:11:56.922Z,99.90
2023-05-06T01:14:47.306Z,99.90
2023-05-06T01:17:16.961Z,99.90
2023-05-06T01:19:51.326Z,99.90
2023-05-06T01:22:18.561Z,99.90
2023-05-06T01:24:46.859Z,99.90
2023-05-06T01:27:14.163Z,99.90
2023-05-06T01:29:42.721Z,99.90
2023-05-06T01:32:26.343Z,99.90
2023-05-06T01:35:18.499Z,99.90
2023-05-06T01:37:50.624Z,99.90
2023-05-06T01:40:18.039Z,99.90
2023-05-06T01:42:49.058Z,99.90
2023-05-06T01:45:17.134Z,99.90
2023-05-06T01:47:46.188Z,99.90
2023-05-06T01:50:13.468Z,99.90
2023-05-06T01:52:40.253Z,99.90
2023-05-06T01:55:07.781Z,99.90
2023-05-06T01:57:34.850Z,99.90
2023-05-06T02:00:01.794Z,99.90
2023-05-06T02:02:28.614Z,99.90
2023-05-06T02:04:55.415Z,99.90
2023-05-06T02:07:22.182Z,99.90
2023-05-06T02:09:48.955Z,99.90
2023-05-06T02:12:15.703Z,99.90
2023-05-06T02:14:42.442Z,99.90
2023-05-06T02:17:09.500Z,99.90
2023-05-06T02:19:36.282Z,99.90
2023-05-06T02:22:03.747Z,99.90
2023-05-06T02:24:30.636Z,99.90
2023-05-06T02:26:57.383Z,99.90
2023-05-06T02:29:24.210Z,99.90
2023-05-06T02:31:51.125Z,99.90
2023-05-06T02:34:17.983Z,99.90
2023-05-06T02:36:44.718Z,99.90
2023-05-06T02:39:11.940Z,99.90
2023-05-06T02:41:38.714Z,99.90
2023-05-06T02:44:06.127Z,99.90
2023-05-06T02:46:33.160Z,99.90
2023-05-06T02:49:00.869Z,99.90
2023-05-06T02:51:27.599Z,99.90
2023-05-06T02:53:54.395Z,99.90
2023-05-06T02:56:21.298Z,99.90
2023-05-06T02:58:48.051Z,99.90
2023-05-06T03:01:14.926Z,99.90
2023-05-06T03:03:42.063Z,99.90
2023-05-06T03:06:08.894Z,99.90
2023-05-06T03:08:35.770Z,99.90
2023-05-06T03:11:02.566Z,99.90
2023-05-06T03:13:29.318Z,99.90
2023-05-06T03:15:56.578Z,99.90
2023-05-06T03:18:23.400Z,99.90
2023-05-06T03:20:50.430Z,99.90
2023-05-06T03:23:17.183Z,99.90
2023-05-06T03:25:43.953Z,99.90
2023-05-06T03:28:11.784Z,99.90
2023-05-06T03:30:38.704Z,99.90
2023-05-06T03:33:05.901Z,99.90
2023-05-06T03:35:32.815Z,99.90
2023-05-06T03:37:59.658Z,99.90
2023-05-06T03:40:26.684Z,99.90
2023-05-06T03:42:53.469Z,99.90
2023-05-06T03:45:20.327Z,99.90
2023-05-06T03:47:48.143Z,99.90
2023-05-06T03:50:15.145Z,99.90
2023-05-06T03:52:42.130Z,99.90
2023-05-06T03:55:09.859Z,99.90
2023-05-06T03:57:36.772Z,99.90
2023-05-06T04:00:03.983Z,99.90
2023-05-06T04:02:31.037Z,99.90
2023-05-06T04:04:57.999Z,99.90
2023-05-06T04:07:24.765Z,99.90
2023-05-06T04:09:51.516Z,99.90
2023-05-06T04:12:18.274Z,99.90
2023-05-06T04:14:45.029Z,99.90
2023-05-06T04:17:11.782Z,99.90
2023-05-06T04:19:38.582Z,99.90
2023-05-06T04:22:05.458Z,99.90
2023-05-06T04:24:32.245Z,99.90
2023-05-06T04:26:58.961Z,99.90
2023-05-06T04:29:26.378Z,99.90
2023-05-06T04:31:54.019Z,99.90
2023-05-06T04:34:20.967Z,99.90
2023-05-06T04:36:47.977Z,99.90
2023-05-06T04:39:14.752Z,99.90
2023-05-06T04:41:41.858Z,99.90
2023-05-06T04:44:09.040Z,99.90
2023-05-06T04:46:36.041Z,99.90
2023-05-06T04:49:02.908Z,99.90
2023-05-06T04:51:29.759Z,99.90
2023-05-06T04:53:56.594Z,99.90
2023-05-06T04:56:23.315Z,99.90
2023-05-06T04:58:50.055Z,99.90
2023-05-06T05:01:16.928Z,99.90
2023-05-06T05:03:43.771Z,99.90
2023-05-06T05:06:11.396Z,99.90
2023-05-06T05:08:38.229Z,1.00
2023-05-06T05:11:08.024Z,1.00
2023-05-06T05:13:35.266Z,99.90
2023-05-06T05:16:02.040Z,99.90
2023-05-06T05:18:31.408Z,1.00
2023-05-06T05:20:58.253Z,1.00
2023-05-06T05:23:25.099Z,1.00
2023-05-06T05:25:51.848Z,1.00
2023-05-06T05:28:18.616Z,1.00
2023-05-06T05:30:45.617Z,99.90
2023-05-06T05:33:12.628Z,1.00
2023-05-06T05:35:39.535Z,1.00
2023-05-06T05:38:06.301Z,99.90
2023-05-06T05:40:33.022Z,99.90
2023-05-06T05:42:59.772Z,99.90
2023-05-06T05:45:26.823Z,99.90
2023-05-06T05:47:54.194Z,99.90
2023-05-06T05:50:21.111Z,99.90
2023-05-06T05:52:48.492Z,1.00
2023-05-06T05:55:15.852Z,1.00
2023-05-06T05:57:42.630Z,99.90
2023-05-06T06:00:11.524Z,99.90
2023-05-06T06:02:39.753Z,1.00
2023-05-06T06:05:07.275Z,1.00
2023-05-06T06:07:34.160Z,42.00
2023-05-06T06:10:00.962Z,99.90
2023-05-06T06:12:27.772Z,1.00
2023-05-06T06:14:54.549Z,1.00
2023-05-06T06:17:21.471Z,43.40
2023-05-06T06:19:48.285Z,1.00
2023-05-06T06:22:15.099Z,99.90
2023-05-06T06:24:41.829Z,99.90
2023-05-06T06:27:08.643Z,99.90
2023-05-06T06:29:35.448Z,99.90
2023-05-06T06:32:03.763Z,99.90
2023-05-06T06:34:30.724Z,99.90
2023-05-06T06:36:57.493Z,99.90
2023-05-06T06:39:24.289Z,1.00
2023-05-06T06:41:51.416Z,1.00
2023-05-06T06:44:18.236Z,1.00
2023-05-06T06:46:45.073Z,1.00
2023-05-06T06:49:11.841Z,1.00
2023-05-06T06:51:38.623Z,1.00
2023-05-06T06:54:05.534Z,99.90
2023-05-06T06:56:32.345Z,1.00
2023-05-06T06:58:59.346Z,1.00
2023-05-06T07:01:26.233Z,1.00
2023-05-06T07:03:53.177Z,1.00
2023-05-06T07:06:19.996Z,1.00
2023-05-06T07:08:47.031Z,1.00
2023-05-06T07:11:14.452Z,99.90
2023-05-06T07:13:41.298Z,1.00
2023-05-06T07:16:08.036Z,1.00
2023-05-06T07:18:34.826Z,1.00
2023-05-06T07:21:01.779Z,99.90
2023-05-06T07:23:29.940Z,99.90
2023-05-06T07:25:59.549Z,1.00
2023-05-06T07:28:26.466Z,1.00
2023-05-06T07:30:53.270Z,99.90
2023-05-06T07:33:20.130Z,99.90
2023-05-06T07:35:46.971Z,99.90
2023-05-06T07:38:13.727Z,99.90
2023-05-06T07:40:41.074Z,80.20
2023-05-06T07:43:08.384Z,6.20
2023-05-06T07:45:35.248Z,26.90
2023-05-06T07:48:02.102Z,18.10
2023-05-06T07:50:28.984Z,1.00
2023-05-06T07:52:55.806Z,1.00
2023-05-06T07:55:22.582Z,73.80
2023-05-06T07:57:49.971Z,98.90
2023-05-06T08:00:17.031Z,1.00
2023-05-06T08:02:44.741Z,1.00
2023-05-06T08:05:12.107Z,1.00
2023-05-06T08:07:42.397Z,1.00
2023-05-06T08:10:09.708Z,1.00
2023-05-06T08:12:36.968Z,1.00
2023-05-06T08:15:04.104Z,1.00
2023-05-06T08:17:30.920Z,1.00
2023-05-06T08:19:57.735Z,1.00
2023-05-06T08:22:24.557Z,1.00
2023-05-06T08:24:51.367Z,1.00
2023-05-06T08:27:18.097Z,99.90
2023-05-06T08:29:44.896Z,1.00
2023-05-06T08:32:11.766Z,1.00
2023-05-06T08:34:38.574Z,99.90
2023-05-06T08:37:05.832Z,99.90
2023-05-06T08:39:32.645Z,99.90
2023-05-06T08:42:02.034Z,99.90
2023-05-06T08:44:29.261Z,99.90
2023-05-06T08:46:56.237Z,99.90
2023-05-06T08:49:23.427Z,99.90
2023-05-06T08:51:54.588Z,99.90
2023-05-06T08:54:25.012Z,99.90
2023-05-06T08:56:57.042Z,99.90
2023-05-06T08:59:25.369Z,99.90
2023-05-06T09:01:53.377Z,99.90
2023-05-06T09:04:20.257Z,99.90
2023-05-06T09:06:47.146Z,79.80
2023-05-06T09:09:15.029Z,78.80
2023-05-06T09:11:41.925Z,1.00
2023-05-06T09:14:16.683Z,1.00
2023-05-06T09:16:45.927Z,1.00
2023-05-06T09:19:13.582Z,1.00
2023-05-06T09:21:44.074Z,1.00
2023-05-06T09:24:12.165Z,1.00
2023-05-06T09:26:41.603Z,1.00
2023-05-06T09:29:09.064Z,1.00
2023-05-06T09:31:46.469Z,1.00
2023-05-06T09:34:14.941Z,1.00
2023-05-06T09:36:41.875Z,1.00
2023-05-06T09:39:10.134Z,1.00
2023-05-06T09:41:37.535Z,1.00
2023-05-06T09:44:04.658Z,1.00
2023-05-06T09:46:33.511Z,99.90
2023-05-06T09:49:00.502Z,99.90
2023-05-06T09:51:31.016Z,99.90
2023-05-06T09:53:58.094Z,1.00
2023-05-06T09:56:25.411Z,1.00
2023-05-06T09:58:52.588Z,99.90
2023-05-06T10:01:32.595Z,99.90
2023-05-06T10:04:06.216Z,99.90
2023-05-06T10:06:35.633Z,99.90
2023-05-06T10:09:02.681Z,99.90
2023-05-06T10:11:31.564Z,99.90
2023-05-06T10:14:00.359Z,99.90
2023-05-06T10:16:27.579Z,99.90
2023-05-06T10:18:55.420Z,99.90
2023-05-06T10:21:26.299Z,99.90
2023-05-06T10:24:07.560Z,99.90
2023-05-06T10:26:38.374Z,99.90
2023-05-06T10:29:11.109Z,99.90
2023-05-06T10:31:48.424Z,99.90
2023-05-06T10:34:16.454Z,99.90
2023-05-06T10:36:43.722Z,99.90
2023-05-06T10:39:13.622Z,99.90
2023-05-06T10:41:40.449Z,99.90
2023-05-06T10:44:07.288Z,99.90
2023-05-06T10:46:57.824Z,99.90
2023-05-06T10:49:24.846Z,99.90
2023-05-06T10:52:12.108Z,99.90
2023-05-06T10:54:51.582Z,99.90
2023-05-06T10:57:20.839Z,99.90
2023-05-06T10:59:48.765Z,99.90
2023-05-06T11:02:20.083Z,99.90
2023-05-06T11:04:51.935Z,99.90
2023-05-06T11:07:23.021Z,99.90
2023-05-06T11:09:57.794Z,99.90
2023-05-06T11:12:46.319Z,99.90
2023-05-06T11:15:26.793Z,99.90
2023-05-06T11:17:55.568Z,99.90
2023-05-06T11:20:25.430Z,99.90
2023-05-06T11:22:53.191Z,99.90
2023-05-06T11:25:42.518Z,99.90
2023-05-06T11:28:11.210Z,99.90
2023-05-06T11:30:42.786Z,99.90
2023-05-06T11:33:22.788Z,99.90
2023-05-06T11:35:49.574Z,99.90
2023-05-06T11:38:16.366Z,99.90
2023-05-06T11:40:43.194Z,99.90
2023-05-06T11:43:16.657Z,99.90
2023-05-06T11:45:46.308Z,99.90
2023-05-06T11:48:14.091Z,99.90
2023-05-06T11:50:49.000Z,99.90
2023-05-06T11:53:20.277Z,99.90
2023-05-06T11:55:48.391Z,99.90
2023-05-06T11:58:20.390Z,99.90
2023-05-06T12:00:52.968Z,99.90
2023-05-06T12:03:21.074Z,99.90
2023-05-06T12:05:49.082Z,99.90
2023-05-06T12:08:26.636Z,99.90
2023-05-06T12:11:04.417Z,99.90
2023-05-06T12:13:31.347Z,99.90
2023-05-06T12:15:59.570Z,99.90
2023-05-06T12:18:27.433Z,99.90
2023-05-06T12:20:55.106Z,99.90
2023-05-06T12:23:22.198Z,99.90
2023-05-06T12:26:04.041Z,99.90
2023-05-06T12:28:32.309Z,99.90
2023-05-06T12:30:59.346Z,99.90
2023-05-06T12:33:26.137Z,99.90
2023-05-06T12:35:54.732Z,99.90
2023-05-06T12:38:21.594Z,99.90
2023-05-06T12:40:55.149Z,99.90
2023-05-06T12:43:29.937Z,99.90
2023-05-06T12:46:04.828Z,99.90
2023-05-06T12:48:31.648Z,94.00
2023-05-06T12:50:58.370Z,99.90
2023-05-06T12:53:33.211Z,99.90
2023-05-06T12:55:59.988Z,99.90
2023-05-06T12:58:26.754Z,99.90
2023-05-06T13:00:53.556Z,99.90
2023-05-06T13:03:20.508Z,99.90
2023-05-06T13:05:49.983Z,99.90
2023-05-06T13:08:16.788Z,99.90
2023-05-06T13:10:43.722Z,99.90
2023-05-06T13:13:10.547Z,84.20
2023-05-06T13:15:37.558Z,58.00
2023-05-06T13:18:05.119Z,78.40
2023-05-06T13:20:32.395Z,71.40
2023-05-06T13:22:59.342Z,55.50
2023-05-06T13:25:26.154Z,56.40
2023-05-06T13:27:53.187Z,58.30
2023-05-06T13:30:19.988Z,57.50
2023-05-06T13:32:46.896Z,49.40
2023-05-06T13:35:13.729Z,24.50
2023-05-06T13:37:40.551Z,47.50
2023-05-06T13:40:08.633Z,53.60
2023-05-06T13:42:36.316Z,42.70
2023-05-06T13:45:03.444Z,37.50
2023-05-06T13:47:30.260Z,57.70
2023-05-06T13:49:57.211Z,40.20
2023-05-06T13:52:23.991Z,31.40
2023-05-06T13:54:50.763Z,33.40
2023-05-06T13:57:18.919Z,40.10
2023-05-06T13:59:45.775Z,44.90
2023-05-06T14:02:13.513Z,39.10
2023-05-06T14:04:40.742Z,52.80
2023-05-06T14:07:07.513Z,38.60
2023-05-06T14:09:34.272Z,35.50
2023-05-06T14:12:01.376Z,38.00
2023-05-06T14:14:28.204Z,28.70
2023-05-06T14:16:55.704Z,27.30
2023-05-06T14:19:23.407Z,25.50
2023-05-06T14:21:51.034Z,34.40
2023-05-06T14:24:17.810Z,38.50
2023-05-06T14:26:46.100Z,39.80
2023-05-06T14:29:12.867Z,36.40
2023-05-06T14:31:39.681Z,31.60
2023-05-06T14:34:06.503Z,51.30
2023-05-06T14:36:33.250Z,44.20
2023-05-06T14:39:00.185Z,47.80
2023-05-06T14:41:27.053Z,43.90
2023-05-06T14:43:53.820Z,47.20
2023-05-06T14:46:20.904Z,56.30
2023-05-06T14:48:47.679Z,57.50
2023-05-06T14:51:14.434Z,30.00
2023-05-06T14:53:41.293Z,35.40
2023-05-06T14:56:10.249Z,25.10
2023-05-06T14:58:37.108Z,31.30
2023-05-06T15:01:03.896Z,1.00
2023-05-06T15:03:30.798Z,1.40
2023-05-06T15:05:57.583Z,8.50
2023-05-06T15:08:24.400Z,9.50
2023-05-06T15:10:51.219Z,25.40
2023-05-06T15:13:18.043Z,15.60
2023-05-06T15:15:44.854Z,21.10
2023-05-06T15:18:13.252Z,17.60
2023-05-06T15:20:40.674Z,13.00
2023-05-06T15:23:07.593Z,11.80
2023-05-06T15:25:36.226Z,16.50
2023-05-06T15:28:04.495Z,19.10
2023-05-06T15:30:31.597Z,20.30
2023-05-06T15:32:58.469Z,6.80
2023-05-06T15:35:25.460Z,17.10
2023-05-06T15:37:58.639Z,33.40
2023-05-06T15:40:26.180Z,51.70
2023-05-06T15:42:52.962Z,63.60
2023-05-06T15:45:20.881Z,73.40
2023-05-06T15:47:48.402Z,68.80
2023-05-06T15:50:29.010Z,91.70
2023-05-06T15:52:59.942Z,85.80
2023-05-06T15:55:26.848Z,94.90
2023-05-06T15:57:54.805Z,99.90
2023-05-06T16:00:22.430Z,99.90
2023-05-06T16:02:49.493Z,99.90
2023-05-06T16:05:16.649Z,99.90
2023-05-06T16:07:43.537Z,99.20
2023-05-06T16:10:10.827Z,92.40
2023-05-06T16:12:37.936Z,85.00
2023-05-06T16:15:05.140Z,73.60
2023-05-06T16:17:32.956Z,54.40
2023-05-06T16:19:59.861Z,92.90
2023-05-06T16:22:26.664Z,99.90
2023-05-06T16:24:53.407Z,95.00
2023-05-06T16:27:20.863Z,99.90
2023-05-06T16:29:47.620Z,99.90
2023-05-06T16:32:14.410Z,93.60
2023-05-06T16:34:41.279Z,85.20
2023-05-06T16:37:08.044Z,91.10
2023-05-06T16:39:34.834Z,93.40
2023-05-06T16:42:02.011Z,84.80
2023-05-06T16:44:29.274Z,94.00
2023-05-06T16:46:56.384Z,94.80
2023-05-06T16:49:24.145Z,91.60
2023-05-06T16:51:50.957Z,93.10
2023-05-06T16:54:17.712Z,96.70
2023-05-06T16:56:51.370Z,87.60
2023-05-06T16:59:22.364Z,93.70
2023-05-06T17:01:50.170Z,92.50
2023-05-06T17:04:16.969Z,99.90
2023-05-06T17:06:43.770Z,99.90
2023-05-06T17:09:11.048Z,99.90
2023-05-06T17:11:37.816Z,99.90
2023-05-06T17:14:04.961Z,99.90
2023-05-06T17:16:31.876Z,99.90
2023-05-06T17:18:58.803Z,99.90
2023-05-06T17:21:25.819Z,99.90
2023-05-06T17:23:54.453Z,99.90
2023-05-06T17:26:21.894Z,99.90
2023-05-06T17:28:48.961Z,99.90
2023-05-06T17:31:16.160Z,99.90
2023-05-06T17:33:44.457Z,99.90
2023-05-06T17:36:20.178Z,99.90
2023-05-06T17:38:48.000Z,99.90
2023-05-06T17:41:15.555Z,99.90
2023-05-06T17:43:43.412Z,99.90
2023-05-06T17:46:10.243Z,99.90
2023-05-06T17:48:37.060Z,99.90
2023-05-06T17:51:03.900Z,99.90
2023-05-06T17:53:32.843Z,99.90
2023-05-06T17:55:59.568Z,99.90
2023-05-06T17:58:26.312Z,99.90
2023-05-06T18:00:53.074Z,99.90
2023-05-06T18:03:19.897Z,99.90
2023-05-06T18:05:46.744Z,99.90
2023-05-06T18:08:13.543Z,99.90
2023-05-06T18:10:41.350Z,99.90
2023-05-06T18:13:08.407Z,99.90
2023-05-06T18:15:35.354Z,99.90
2023-05-06T18:18:02.272Z,99.90
2023-05-06T18:20:29.135Z,99.90
2023-05-06T18:22:56.366Z,99.90
2023-05-06T18:25:23.376Z,99.90
2023-05-06T18:27:50.356Z,99.90
2023-05-06T18:30:17.166Z,99.90
2023-05-06T18:32:43.951Z,99.90
2023-05-06T18:35:11.445Z,99.90
2023-05-06T18:37:38.702Z,99.90
2023-05-06T18:40:07.700Z,99.90
2023-05-06T18:42:35.683Z,99.90
2023-05-06T18:45:07.053Z,99.90
2023-05-06T18:47:33.983Z,99.90
2023-05-06T18:50:00.871Z,99.90
2023-05-06T18:52:27.991Z,99.90
2023-05-06T18:54:54.844Z,99.90
2023-05-06T18:57:21.774Z,99.90
2023-05-06T18:59:48.827Z,99.90
2023-05-06T19:02:15.815Z,99.90
2023-05-06T19:04:42.566Z,99.90
2023-05-06T19:07:10.295Z,99.90
2023-05-06T19:09:37.329Z,99.90
2023-05-06T19:12:04.355Z,99.90
2023-05-06T19:14:40.626Z,99.90
2023-05-06T19:17:07.448Z,99.90
2023-05-06T19:19:34.229Z,99.90
2023-05-06T19:22:02.237Z,99.90
2023-05-06T19:24:29.957Z,99.90
2023-05-06T19:26:56.723Z,99.90
2023-05-06T19:29:23.487Z,99.90
2023-05-06T19:31:50.278Z,99.90
2023-05-06T19:34:17.108Z,99.90
2023-05-06T19:36:43.842Z,99.90
2023-05-06T19:39:10.628Z,99.90
2023-05-06T19:41:37.494Z,99.90
2023-05-06T19:44:04.446Z,99.90
2023-05-06T19:46:31.277Z,99.90
2023-05-06T19:48:58.444Z,99.90
2023-05-06T19:51:25.585Z,99.30
2023-05-06T19:53:52.409Z,99.90
2023-05-06T19:56:20.232Z,99.90
2023-05-06T19:58:47.194Z,99.90
2023-05-06T20:01:14.730Z,99.90
2023-05-06T20:03:41.762Z,99.90
2023-05-06T20:06:08.838Z,99.90
2023-05-06T20:08:35.678Z,99.90
2023-05-06T20:11:02.476Z,99.90
2023-05-06T20:13:29.377Z,99.90
2023-05-06T20:15:57.422Z,99.90
2023-05-06T20:18:25.162Z,99.90
2023-05-06T20:20:51.912Z,99.90
2023-05-06T20:23:18.685Z,99.90
2023-05-06T20:25:45.519Z,99.90
2023-05-06T20:28:12.247Z,99.90
2023-05-06T20:30:39.051Z,99.90
2023-05-06T20:33:06.096Z,99.90
2023-05-06T20:35:37.997Z,99.90
2023-05-06T20:38:05.114Z,99.90
2023-05-06T20:40:32.707Z,99.90
2023-05-06T20:42:59.452Z,99.90
2023-05-06T20:45:26.239Z,99.90
2023-05-06T20:47:53.082Z,99.90
2023-05-06T20:50:19.927Z,99.90
2023-05-06T20:52:47.143Z,99.90
2023-05-06T20:55:16.622Z,99.90
2023-05-06T20:57:44.286Z,99.90
2023-05-06T21:00:11.685Z,99.90
2023-05-06T21:02:41.464Z,99.90
2023-05-06T21:05:09.999Z,99.90
2023-05-06T21:07:37.175Z,99.90
2023-05-06T21:10:05.821Z,99.90
2023-05-06T21:12:33.591Z,99.90
2023-05-06T21:15:00.838Z,99.90
2023-05-06T21:17:28.628Z,99.90
2023-05-06T21:19:55.490Z,99.90
2023-05-06T21:22:23.492Z,99.90
2023-05-06T21:24:51.084Z,99.90
2023-05-06T21:27:18.208Z,99.90
2023-05-06T21:29:45.057Z,99.90
2023-05-06T21:32:11.907Z,99.90
2023-05-06T21:34:38.832Z,99.90
2023-05-06T21:37:05.705Z,99.90
2023-05-06T21:39:32.506Z,99.90
2023-05-06T21:41:59.287Z,99.90
2023-05-06T21:44:26.044Z,99.90
2023-05-06T21:46:53.052Z,99.90
2023-05-06T21:49:21.873Z,99.90
2023-05-06T21:51:48.763Z,99.90
2023-05-06T21:54:17.274Z,99.90
2023-05-06T21:56:44.724Z,99.90
2023-05-06T21:59:11.553Z,99.90
2023-05-06T22:01:38.829Z,99.90
2023-05-06T22:04:11.186Z,1.00
2023-05-06T22:06:39.295Z,99.90
2023-05-06T22:09:09.500Z,1.00
2023-05-06T22:11:39.760Z,1.00
2023-05-06T22:14:07.035Z,1.00
2023-05-06T22:16:35.401Z,1.00
2023-05-06T22:19:03.877Z,1.00
2023-05-06T22:21:32.901Z,1.00
2023-05-06T22:23:59.898Z,1.00
2023-05-06T22:26:29.580Z,1.00
2023-05-06T22:28:56.537Z,1.00
2023-05-06T22:31:24.784Z,1.00
2023-05-06T22:33:55.320Z,1.00
2023-05-06T22:36:22.482Z,1.00
2023-05-06T22:38:49.517Z,1.00
2023-05-06T22:41:17.411Z,1.00
2023-05-06T22:43:44.195Z,1.00
2023-05-06T22:46:11.036Z,1.00
2023-05-06T22:48:37.846Z,1.00
2023-05-06T22:51:04.956Z,1.00
2023-05-06T22:53:32.017Z,1.00
2023-05-06T22:55:58.828Z,1.00
2023-05-06T22:58:25.668Z,1.00
2023-05-06T23:00:52.461Z,1.00
2023-05-06T23:03:19.618Z,1.00
2023-05-06T23:05:46.549Z,1.00
2023-05-06T23:08:13.298Z,1.00
2023-05-06T23:10:40.529Z,1.00
2023-05-06T23:13:07.456Z,1.00
2023-05-06T23:15:34.406Z,1.00
2023-05-06T23:18:01.369Z,1.00
2023-05-06T23:20:28.166Z,1.00
2023-05-06T23:22:54.923Z,1.00
2023-05-06T23:25:21.708Z,1.00
2023-05-06T23:27:48.499Z,1.00
2023-05-06T23:30:15.352Z,1.00
2023-05-06T23:32:42.394Z,1.00
2023-05-06T23:35:09.715Z,1.00
2023-05-06T23:37:36.697Z,1.00
2023-05-06T23:40:04.389Z,1.00
2023-05-06T23:42:31.215Z,1.00
2023-05-06T23:45:00.083Z,1.00
2023-05-06T23:47:26.989Z,1.00
2023-05-06T23:49:53.773Z,1.00
2023-05-06T23:52:21.283Z,1.00
2023-05-06T23:54:48.111Z,1.00
2023-05-06T23:57:14.863Z,1.00
2023-05-06T23:59:41.615Z,1.00
